createdAt,value
2019-03-27T00:02:30.329Z,63.40
2019-03-27T00:05:01.719Z,64.70
2019-03-27T00:07:33.210Z,64.40
2019-03-27T00:10:05.055Z,65.30
2019-03-27T00:12:36.408Z,64.70
2019-03-27T00:15:13.279Z,64.50
2019-03-27T00:17:42.499Z,65.00
2019-03-27T00:20:14.383Z,64.90
2019-03-27T00:22:45.782Z,65.20
2019-03-27T00:25:17.170Z,64.10
2019-03-27T00:27:48.510Z,65.40
2019-03-27T00:30:20.104Z,66.60
2019-03-27T00:32:51.480Z,66.90
2019-03-27T00:35:22.859Z,67.10
2019-03-27T00:37:54.265Z,66.60
2019-03-27T00:40:25.676Z,67.10
2019-03-27T00:42:57.058Z,67.40
2019-03-27T00:45:28.489Z,66.10
2019-03-27T00:48:00.484Z,67.10
2019-03-27T00:50:32.428Z,68.00
2019-03-27T00:53:03.876Z,68.00
2019-03-27T00:55:35.888Z,66.70
2019-03-27T00:58:07.275Z,66.60
2019-03-27T01:01:17.753Z,67.30
2019-03-27T01:03:49.104Z,68.40
2019-03-27T01:06:20.516Z,68.20
2019-03-27T01:08:51.912Z,67.50
2019-03-27T01:11:23.336Z,67.80
2019-03-27T01:13:54.741Z,69.20
2019-03-27T01:16:26.135Z,70.50
2019-03-27T01:18:57.505Z,70.70
2019-03-27T01:21:29.148Z,71.00
2019-03-27T01:24:00.660Z,72.20
2019-03-27T01:26:32.062Z,71.60
2019-03-27T01:29:04.548Z,70.70
2019-03-27T01:31:35.949Z,72.90
2019-03-27T01:34:07.333Z,71.60
2019-03-27T01:36:38.728Z,72.50
2019-03-27T01:39:10.096Z,71.10
2019-03-27T01:41:41.717Z,72.80
2019-03-27T01:44:13.116Z,72.10
2019-03-27T01:46:45.527Z,72.20
2019-03-27T01:49:16.877Z,73.20
2019-03-27T01:51:48.273Z,74.00
2019-03-27T01:54:19.617Z,75.30
2019-03-27T01:56:50.996Z,75.60
2019-03-27T01:59:22.368Z,75.70
2019-03-27T02:01:53.766Z,76.10
2019-03-27T02:04:25.131Z,74.20
2019-03-27T02:06:56.521Z,74.00
2019-03-27T02:09:27.924Z,74.80
2019-03-27T02:11:59.325Z,75.50
2019-03-27T02:14:30.757Z,76.00
2019-03-27T02:17:02.148Z,76.60
2019-03-27T02:19:33.810Z,76.60
2019-03-27T02:22:05.197Z,77.60
2019-03-27T02:24:36.565Z,77.40
2019-03-27T02:27:07.980Z,78.10
2019-03-27T02:29:39.327Z,78.60
2019-03-27T02:32:10.709Z,78.10
2019-03-27T02:34:42.079Z,78.20
2019-03-27T02:37:13.441Z,78.70
2019-03-27T02:39:44.778Z,78.50
2019-03-27T02:42:16.211Z,77.20
2019-03-27T02:44:47.584Z,77.00
2019-03-27T02:47:18.952Z,76.40
2019-03-27T02:49:50.338Z,76.70
2019-03-27T02:52:21.694Z,76.20
2019-03-27T02:54:53.087Z,76.60
2019-03-27T02:57:24.489Z,77.10
2019-03-27T02:59:55.834Z,77.70
2019-03-27T03:02:27.192Z,77.80
2019-03-27T03:04:58.558Z,78.00
2019-03-27T03:07:29.938Z,77.50
2019-03-27T03:10:01.305Z,78.00
2019-03-27T03:12:32.758Z,79.00
2019-03-27T03:15:04.555Z,77.40
2019-03-27T03:17:37.007Z,76.90
2019-03-27T03:20:08.933Z,77.90
2019-03-27T03:22:40.301Z,77.90
2019-03-27T03:25:12.972Z,78.40
2019-03-27T03:27:44.345Z,79.00
2019-03-27T03:30:15.923Z,78.40
2019-03-27T03:32:47.314Z,79.30
2019-03-27T03:35:18.678Z,78.60
2019-03-27T03:37:50.065Z,78.90
2019-03-27T03:40:21.430Z,78.00
2019-03-27T03:42:52.817Z,78.60
2019-03-27T03:45:24.189Z,79.10
2019-03-27T03:47:55.596Z,79.00
2019-03-27T03:50:44.357Z,79.30
2019-03-27T03:53:17.090Z,78.90
2019-03-27T03:55:50.266Z,79.20
2019-03-27T03:58:25.096Z,79.10
2019-03-27T04:00:57.266Z,79.10
2019-03-27T04:03:30.558Z,79.00
2019-03-27T04:06:01.967Z,79.40
2019-03-27T04:08:33.515Z,79.40
2019-03-27T04:11:05.464Z,79.40
2019-03-27T04:13:39.109Z,79.20
2019-03-27T04:16:11.664Z,78.60
2019-03-27T04:18:43.169Z,78.20
2019-03-27T04:21:14.558Z,79.10
2019-03-27T04:23:45.915Z,77.80
2019-03-27T04:26:17.300Z,78.30
2019-03-27T04:28:48.684Z,78.40
2019-03-27T04:31:20.059Z,78.90
2019-03-27T04:33:51.442Z,78.90
2019-03-27T04:36:24.512Z,78.10
2019-03-27T04:39:16.461Z,78.10
2019-03-27T04:41:51.140Z,77.30
2019-03-27T04:44:27.716Z,77.50
2019-03-27T04:47:31.506Z,77.10
2019-03-27T04:50:13.477Z,75.00
2019-03-27T04:52:45.620Z,73.20
2019-03-27T04:55:17.009Z,71.30
2019-03-27T04:57:48.404Z,70.00
2019-03-27T05:00:19.925Z,67.60
2019-03-27T05:02:52.812Z,63.30
2019-03-27T05:05:24.240Z,62.00
2019-03-27T05:07:55.626Z,61.50
2019-03-27T05:10:27.077Z,60.30
2019-03-27T05:12:58.496Z,59.10
2019-03-27T05:15:32.306Z,59.20
2019-03-27T05:18:03.376Z,59.70
2019-03-27T05:20:34.810Z,57.00
2019-03-27T05:23:06.220Z,55.90
2019-03-27T05:25:37.584Z,57.10
2019-03-27T05:28:09.011Z,56.50
2019-03-27T05:30:40.438Z,55.00
2019-03-27T05:33:11.855Z,78.30
2019-03-27T05:35:43.292Z,72.80
2019-03-27T05:38:14.677Z,67.80
2019-03-27T05:40:46.044Z,72.70
2019-03-27T05:43:17.424Z,71.40
2019-03-27T05:45:48.784Z,72.20
2019-03-27T05:48:20.158Z,66.90
2019-03-27T05:50:51.540Z,65.60
2019-03-27T05:53:22.937Z,62.00
2019-03-27T05:55:54.316Z,58.80
2019-03-27T05:58:26.696Z,56.90
2019-03-27T06:00:58.105Z,55.70
2019-03-27T06:03:29.477Z,54.30
2019-03-27T06:06:00.894Z,52.90
2019-03-27T06:08:32.272Z,53.20
2019-03-27T06:11:03.681Z,51.60
2019-03-27T06:13:35.079Z,50.10
2019-03-27T06:16:06.464Z,50.00
2019-03-27T06:18:37.812Z,48.10
2019-03-27T06:21:09.236Z,47.50
2019-03-27T06:23:40.651Z,47.00
2019-03-27T06:26:12.060Z,47.60
2019-03-27T06:28:43.404Z,48.70
2019-03-27T06:31:14.814Z,48.60
2019-03-27T06:33:46.215Z,46.70
2019-03-27T06:36:17.621Z,45.90
2019-03-27T06:38:49.004Z,44.60
2019-03-27T06:41:20.475Z,44.90
2019-03-27T06:43:51.863Z,46.50
2019-03-27T06:46:23.256Z,45.70
2019-03-27T06:48:54.633Z,44.20
2019-03-27T06:51:39.388Z,43.20
2019-03-27T06:54:00.018Z,43.50
2019-03-27T06:56:31.400Z,44.10
2019-03-27T06:59:02.811Z,44.10
2019-03-27T07:01:34.305Z,44.20
2019-03-27T07:04:10.652Z,42.50
2019-03-27T07:06:38.700Z,44.60
2019-03-27T07:09:11.025Z,47.10
2019-03-27T07:11:42.433Z,47.80
2019-03-27T07:14:13.776Z,47.00
2019-03-27T07:16:45.193Z,47.80
2019-03-27T07:19:16.596Z,47.60
2019-03-27T07:21:47.976Z,47.00
2019-03-27T07:24:19.535Z,47.20
2019-03-27T07:26:50.934Z,47.30
2019-03-27T07:29:22.291Z,49.80
2019-03-27T07:31:53.722Z,51.00
2019-03-27T07:34:25.184Z,46.60
2019-03-27T07:36:56.601Z,48.10
2019-03-27T07:39:27.982Z,48.70
2019-03-27T07:41:59.372Z,51.30
2019-03-27T07:44:30.769Z,52.00
2019-03-27T07:47:02.152Z,51.80
2019-03-27T07:49:33.541Z,53.30
2019-03-27T07:52:05.039Z,52.30
2019-03-27T07:54:37.521Z,54.10
2019-03-27T07:57:08.902Z,53.90
2019-03-27T07:59:40.294Z,53.00
2019-03-27T08:02:11.678Z,53.10
2019-03-27T08:04:43.096Z,53.20
2019-03-27T08:07:26.291Z,52.90
2019-03-27T08:09:47.620Z,52.10
2019-03-27T08:12:19.057Z,50.80
2019-03-27T08:14:50.437Z,50.80
2019-03-27T08:17:21.817Z,51.20
2019-03-27T08:19:53.240Z,51.30
2019-03-27T08:22:24.688Z,51.00
2019-03-27T08:24:56.064Z,49.50
2019-03-27T08:27:27.436Z,49.90
2019-03-27T08:29:58.802Z,49.40
2019-03-27T08:32:30.300Z,49.20
2019-03-27T08:35:01.697Z,47.90
2019-03-27T08:37:33.172Z,47.90
2019-03-27T08:40:04.913Z,48.10
2019-03-27T08:42:36.329Z,47.40
2019-03-27T08:45:09.363Z,47.20
2019-03-27T08:47:40.968Z,45.90
2019-03-27T08:50:13.104Z,45.80
2019-03-27T08:52:44.689Z,45.20
2019-03-27T08:55:16.305Z,46.60
2019-03-27T08:57:47.737Z,47.10
2019-03-27T09:00:22.925Z,48.00
2019-03-27T09:02:54.556Z,46.50
2019-03-27T09:05:25.913Z,46.80
2019-03-27T09:07:57.289Z,46.60
2019-03-27T09:10:28.670Z,47.30
2019-03-27T09:13:00.051Z,48.20
2019-03-27T09:15:31.433Z,47.40
2019-03-27T09:18:02.953Z,45.90
2019-03-27T09:20:34.429Z,46.30
2019-03-27T09:23:05.874Z,46.10
2019-03-27T09:25:37.188Z,45.30
2019-03-27T09:28:08.678Z,44.30
2019-03-27T09:30:40.035Z,44.10
2019-03-27T09:33:11.390Z,43.60
2019-03-27T09:35:42.769Z,44.00
2019-03-27T09:38:14.176Z,43.90
2019-03-27T09:40:45.646Z,43.90
2019-03-27T09:43:17.016Z,43.80
2019-03-27T09:45:48.407Z,45.30
2019-03-27T09:48:19.788Z,44.30
2019-03-27T09:50:51.198Z,44.00
2019-03-27T09:53:22.553Z,44.60
2019-03-27T09:55:54.039Z,44.00
2019-03-27T09:58:25.428Z,43.90
2019-03-27T10:01:05.628Z,43.60
2019-03-27T10:03:37.037Z,44.20
2019-03-27T10:06:08.564Z,44.00
2019-03-27T10:08:40.969Z,43.60
2019-03-27T10:11:12.353Z,43.60
2019-03-27T10:13:44.776Z,44.70
2019-03-27T10:16:16.174Z,44.20
2019-03-27T10:18:47.774Z,44.80
2019-03-27T10:21:21.777Z,45.60
2019-03-27T10:23:53.152Z,45.00
2019-03-27T10:26:24.508Z,45.40
2019-03-27T10:28:55.893Z,45.90
2019-03-27T10:31:27.253Z,45.50
2019-03-27T10:33:58.661Z,45.20
2019-03-27T10:36:31.208Z,45.40
2019-03-27T10:39:02.591Z,45.70
2019-03-27T10:41:36.259Z,46.10
2019-03-27T10:44:07.616Z,46.10
2019-03-27T10:46:38.961Z,46.50
2019-03-27T10:49:10.345Z,47.00
2019-03-27T10:51:41.701Z,46.00
2019-03-27T10:54:13.232Z,46.70
2019-03-27T10:56:50.946Z,45.90
2019-03-27T10:59:25.064Z,45.80
2019-03-27T11:01:56.457Z,45.50
2019-03-27T11:04:29.025Z,45.30
2019-03-27T11:07:00.417Z,45.30
2019-03-27T11:09:31.845Z,45.20
2019-03-27T11:12:04.556Z,44.80
2019-03-27T11:14:38.448Z,45.10
2019-03-27T11:17:11.219Z,44.60
2019-03-27T11:19:42.590Z,44.30
2019-03-27T11:22:13.957Z,43.70
2019-03-27T11:24:53.406Z,42.80
2019-03-27T11:27:31.675Z,43.60
2019-03-27T11:30:05.469Z,43.60
2019-03-27T11:32:37.555Z,43.20
2019-03-27T11:35:10.457Z,42.50
2019-03-27T11:37:48.633Z,41.90
2019-03-27T11:40:26.947Z,43.40
2019-03-27T11:43:04.499Z,42.20
2019-03-27T11:45:36.997Z,42.90
2019-03-27T11:48:11.217Z,42.10
2019-03-27T11:50:45.614Z,42.40
2019-03-27T11:53:36.377Z,42.30
2019-03-27T11:56:09.709Z,42.10
2019-03-27T11:58:42.889Z,41.80
2019-03-27T12:01:20.241Z,42.30
2019-03-27T12:04:04.837Z,42.00
2019-03-27T12:07:14.889Z,41.90
2019-03-27T12:10:12.394Z,41.90
2019-03-27T12:12:55.409Z,42.10
2019-03-27T12:16:02.393Z,41.80
2019-03-27T12:18:58.469Z,41.70
2019-03-27T12:21:57.013Z,42.60
2019-03-27T12:25:15.102Z,42.20
2019-03-27T12:28:10.077Z,43.80
2019-03-27T12:31:02.715Z,42.90
2019-03-27T12:33:55.878Z,42.90
2019-03-27T12:37:00.259Z,43.50
2019-03-27T12:40:01.959Z,43.50
2019-03-27T12:42:57.739Z,43.20
2019-03-27T12:45:44.405Z,43.60
2019-03-27T12:48:43.553Z,43.70
2019-03-27T12:51:30.191Z,43.40
2019-03-27T12:54:03.227Z,43.30
2019-03-27T12:56:34.614Z,43.50
2019-03-27T12:59:09.203Z,43.70
2019-03-27T13:01:40.704Z,43.60
2019-03-27T13:04:12.109Z,43.60
2019-03-27T13:06:43.625Z,43.90
2019-03-27T13:09:15.150Z,43.20
2019-03-27T13:11:46.525Z,43.60
2019-03-27T13:14:17.952Z,43.60
2019-03-27T13:16:52.211Z,43.20
2019-03-27T13:19:22.441Z,43.40
2019-03-27T13:21:53.814Z,43.50
2019-03-27T13:24:25.222Z,43.60
2019-03-27T13:26:56.637Z,43.60
2019-03-27T13:29:28.065Z,43.50
2019-03-27T13:31:59.950Z,42.90
2019-03-27T13:34:31.354Z,43.70
2019-03-27T13:37:02.731Z,44.80
2019-03-27T13:39:36.867Z,44.00
2019-03-27T13:42:11.645Z,44.30
2019-03-27T13:44:47.286Z,44.20
2019-03-27T13:47:19.457Z,45.00
2019-03-27T13:49:51.278Z,44.40
2019-03-27T13:52:22.673Z,44.30
2019-03-27T13:54:54.078Z,44.20
2019-03-27T13:57:25.569Z,44.60
2019-03-27T13:59:59.058Z,45.00
2019-03-27T14:02:31.156Z,44.80
2019-03-27T14:05:02.597Z,44.60
2019-03-27T14:07:35.211Z,44.80
2019-03-27T14:10:07.141Z,44.50
2019-03-27T14:12:38.530Z,44.90
2019-03-27T14:15:10.753Z,44.80
2019-03-27T14:17:42.245Z,45.20
2019-03-27T14:20:14.468Z,44.60
2019-03-27T14:22:46.854Z,45.20
2019-03-27T14:25:21.774Z,45.30
2019-03-27T14:27:51.705Z,45.90
2019-03-27T14:30:52.130Z,46.00
2019-03-27T14:33:23.577Z,46.20
2019-03-27T14:35:54.956Z,46.70
2019-03-27T14:38:26.548Z,47.20
2019-03-27T14:40:58.555Z,47.20
2019-03-27T14:43:29.963Z,47.50
2019-03-27T14:46:01.369Z,47.60
2019-03-27T14:48:32.750Z,47.20
2019-03-27T14:51:04.255Z,47.70
2019-03-27T14:53:37.453Z,48.00
2019-03-27T14:56:09.512Z,48.30
2019-03-27T14:58:41.269Z,48.40
2019-03-27T15:01:12.645Z,48.70
2019-03-27T15:03:45.184Z,48.50
2019-03-27T15:06:18.228Z,48.40
2019-03-27T15:08:49.628Z,49.00
2019-03-27T15:11:21.314Z,48.70
2019-03-27T15:13:53.440Z,48.90
2019-03-27T15:16:24.810Z,48.90
2019-03-27T15:18:56.157Z,49.00
2019-03-27T15:21:27.547Z,49.50
2019-03-27T15:23:58.900Z,49.70
2019-03-27T15:26:30.379Z,49.40
2019-03-27T15:29:01.721Z,49.60
2019-03-27T15:31:33.114Z,49.30
2019-03-27T15:34:04.645Z,49.00
2019-03-27T15:36:36.028Z,48.50
2019-03-27T15:39:08.786Z,48.70
2019-03-27T15:41:40.164Z,49.40
2019-03-27T15:44:11.508Z,49.80
2019-03-27T15:46:42.909Z,49.90
2019-03-27T15:49:14.293Z,49.80
2019-03-27T15:51:45.669Z,50.00
2019-03-27T15:54:17.046Z,50.10
2019-03-27T15:56:48.431Z,50.20
2019-03-27T15:59:19.808Z,50.20
2019-03-27T16:01:57.918Z,50.50
2019-03-27T16:04:29.600Z,51.10
2019-03-27T16:07:00.983Z,51.20
2019-03-27T16:09:32.351Z,51.70
2019-03-27T16:12:03.922Z,52.00
2019-03-27T16:14:35.788Z,52.40
2019-03-27T16:17:13.752Z,52.70
2019-03-27T16:19:41.034Z,52.70
2019-03-27T16:22:13.827Z,52.80
2019-03-27T16:24:45.197Z,52.70
2019-03-27T16:27:18.569Z,53.00
2019-03-27T16:29:50.957Z,52.80
2019-03-27T16:32:22.427Z,53.00
2019-03-27T16:34:53.805Z,53.20
2019-03-27T16:37:25.236Z,53.30
2019-03-27T16:39:57.703Z,53.50
2019-03-27T16:42:29.097Z,53.60
2019-03-27T16:45:00.505Z,53.90
2019-03-27T16:47:31.952Z,54.10
2019-03-27T16:50:03.709Z,54.30
2019-03-27T16:52:35.490Z,54.60
2019-03-27T16:55:08.058Z,54.80
2019-03-27T16:57:40.472Z,55.00
2019-03-27T17:00:12.255Z,55.40
2019-03-27T17:02:43.646Z,54.70
2019-03-27T17:05:16.075Z,54.30
2019-03-27T17:07:47.525Z,54.80
2019-03-27T17:10:19.028Z,54.20
2019-03-27T17:12:50.417Z,54.40
2019-03-27T17:15:21.780Z,53.90
2019-03-27T17:17:53.176Z,54.00
2019-03-27T17:20:24.533Z,54.90
2019-03-27T17:22:55.936Z,54.90
2019-03-27T17:25:27.313Z,54.00
2019-03-27T17:27:58.776Z,54.40
2019-03-27T17:30:31.976Z,53.70
2019-03-27T17:33:03.226Z,54.20
2019-03-27T17:35:34.623Z,54.20
2019-03-27T17:38:06.197Z,55.00
2019-03-27T17:40:37.621Z,55.00
2019-03-27T17:43:09.008Z,55.20
2019-03-27T17:45:40.566Z,55.30
2019-03-27T17:48:11.990Z,55.40
2019-03-27T17:50:43.346Z,55.10
2019-03-27T17:53:14.855Z,55.50
2019-03-27T17:55:46.293Z,55.00
2019-03-27T17:58:17.670Z,55.30
2019-03-27T18:00:57.428Z,55.30
2019-03-27T18:03:28.864Z,56.10
2019-03-27T18:06:00.257Z,55.90
2019-03-27T18:08:31.780Z,55.90
2019-03-27T18:11:03.549Z,56.40
2019-03-27T18:13:35.130Z,55.70
2019-03-27T18:16:06.590Z,55.20
2019-03-27T18:18:38.001Z,55.40
2019-03-27T18:21:09.415Z,55.20
2019-03-27T18:23:46.422Z,55.90
2019-03-27T18:26:14.245Z,55.40
2019-03-27T18:28:45.844Z,55.80
2019-03-27T18:31:17.292Z,56.20
2019-03-27T18:33:49.521Z,56.10
2019-03-27T18:36:21.060Z,56.20
2019-03-27T18:38:52.552Z,56.70
2019-03-27T18:41:25.472Z,56.40
2019-03-27T18:43:59.000Z,55.30
2019-03-27T18:46:32.187Z,56.30
2019-03-27T18:49:03.744Z,57.20
2019-03-27T18:51:46.643Z,58.00
2019-03-27T18:54:23.399Z,58.60
2019-03-27T18:56:53.257Z,59.00
2019-03-27T18:59:24.717Z,59.10
2019-03-27T19:01:56.318Z,59.50
2019-03-27T19:04:27.759Z,59.30
2019-03-27T19:06:59.237Z,59.60
2019-03-27T19:09:30.666Z,59.60
2019-03-27T19:12:02.268Z,59.80
2019-03-27T19:14:33.752Z,59.80
2019-03-27T19:17:05.181Z,60.00
2019-03-27T19:19:36.597Z,60.00
2019-03-27T19:22:08.073Z,60.20
2019-03-27T19:24:40.488Z,60.20
2019-03-27T19:27:12.098Z,59.90
2019-03-27T19:29:44.972Z,60.10
2019-03-27T19:32:17.761Z,60.40
2019-03-27T19:34:51.123Z,60.70
2019-03-27T19:37:22.246Z,61.00
2019-03-27T19:39:53.674Z,61.00
2019-03-27T19:42:25.081Z,61.30
2019-03-27T19:44:56.599Z,61.30
2019-03-27T19:47:28.097Z,61.00
2019-03-27T19:49:59.556Z,61.30
2019-03-27T19:52:31.030Z,61.60
2019-03-27T19:55:03.669Z,61.80
2019-03-27T19:57:35.092Z,62.00
2019-03-27T20:00:08.700Z,62.10
2019-03-27T20:02:40.311Z,62.10
2019-03-27T20:05:14.538Z,62.00
2019-03-27T20:07:46.017Z,62.00
2019-03-27T20:10:18.542Z,62.10
2019-03-27T20:12:52.073Z,62.50
2019-03-27T20:15:31.814Z,62.60
2019-03-27T20:18:05.024Z,62.70
2019-03-27T20:20:40.098Z,63.00
2019-03-27T20:23:15.062Z,62.90
2019-03-27T20:25:45.228Z,62.90
2019-03-27T20:28:18.619Z,62.60
2019-03-27T20:30:51.811Z,62.80
2019-03-27T20:33:26.159Z,63.90
2019-03-27T20:35:57.885Z,63.30
2019-03-27T20:38:29.777Z,63.70
2019-03-27T20:41:01.361Z,63.40
2019-03-27T20:43:32.836Z,63.40
2019-03-27T20:46:04.216Z,63.40
2019-03-27T20:48:35.595Z,63.80
2019-03-27T20:51:08.217Z,64.50
2019-03-27T20:53:49.166Z,64.50
2019-03-27T20:56:28.528Z,64.80
2019-03-27T20:59:01.459Z,65.00
2019-03-27T21:01:33.407Z,65.10
2019-03-27T21:04:07.852Z,65.40
2019-03-27T21:06:39.717Z,65.60
2019-03-27T21:09:11.167Z,65.70
2019-03-27T21:11:42.981Z,65.60
2019-03-27T21:14:14.433Z,66.00
2019-03-27T21:16:45.890Z,65.80
2019-03-27T21:19:17.340Z,65.80
2019-03-27T21:21:48.862Z,65.80
2019-03-27T21:24:20.305Z,65.70
2019-03-27T21:26:51.694Z,66.10
2019-03-27T21:29:23.415Z,66.00
2019-03-27T21:31:54.802Z,66.10
2019-03-27T21:34:26.172Z,66.00
2019-03-27T21:36:57.588Z,66.50
2019-03-27T21:39:29.071Z,66.70
2019-03-27T21:42:00.630Z,66.90
2019-03-27T21:44:34.678Z,67.10
2019-03-27T21:47:06.747Z,67.30
2019-03-27T21:49:38.648Z,67.50
2019-03-27T21:52:14.943Z,67.50
2019-03-27T21:54:46.605Z,66.90
2019-03-27T21:57:21.012Z,67.30
2019-03-27T21:59:52.819Z,67.70
2019-03-27T22:02:25.374Z,67.80
2019-03-27T22:04:57.843Z,67.70
2019-03-27T22:07:30.092Z,67.70
2019-03-27T22:10:01.628Z,67.90
2019-03-27T22:12:33.374Z,68.10
2019-03-27T22:15:08.867Z,69.10
2019-03-27T22:17:40.894Z,68.30
2019-03-27T22:20:12.777Z,68.60
2019-03-27T22:22:44.306Z,69.00
2019-03-27T22:25:16.870Z,68.90
2019-03-27T22:27:48.305Z,69.30
2019-03-27T22:30:21.928Z,69.30
2019-03-27T22:32:53.906Z,69.40
2019-03-27T22:35:25.402Z,69.70
2019-03-27T22:37:57.040Z,70.00
2019-03-27T22:40:29.910Z,70.20
2019-03-27T22:43:05.243Z,70.10
2019-03-27T22:45:38.890Z,69.90
2019-03-27T22:48:10.458Z,70.10
2019-03-27T22:50:41.999Z,70.20
2019-03-27T22:53:13.566Z,70.30
2019-03-27T22:55:50.174Z,70.30
2019-03-27T22:58:18.324Z,69.70
2019-03-27T23:00:54.890Z,69.50
2019-03-27T23:03:26.616Z,70.10
2019-03-27T23:05:58.379Z,69.40
2019-03-27T23:08:30.016Z,69.60
2019-03-27T23:11:01.793Z,69.70
2019-03-27T23:13:33.342Z,69.40
2019-03-27T23:16:05.251Z,69.40
2019-03-27T23:18:36.895Z,69.70
2019-03-27T23:21:08.427Z,69.70
2019-03-27T23:23:39.983Z,70.30
2019-03-27T23:26:11.460Z,70.60
2019-03-27T23:28:43.000Z,70.60
2019-03-27T23:31:14.568Z,70.70
2019-03-27T23:33:46.094Z,70.40
2019-03-27T23:36:17.534Z,70.50
2019-03-27T23:38:49.068Z,70.80
2019-03-27T23:41:20.844Z,70.60
2019-03-27T23:43:52.655Z,70.70
2019-03-27T23:46:24.268Z,70.90
2019-03-27T23:48:55.969Z,71.00
2019-03-27T23:51:27.746Z,71.30
2019-03-27T23:53:59.891Z,71.40
2019-03-27T23:56:31.611Z,71.50
2019-03-27T23:59:03.485Z,71.60
